createdAt,value
2016-12-21T00:00:01.731Z,960.99
2016-12-21T00:00:27.713Z,960.98
2016-12-21T00:00:53.701Z,960.97
2016-12-21T00:01:19.685Z,960.95
2016-12-21T00:01:45.669Z,960.97
2016-12-21T00:02:11.660Z,960.95
2016-12-21T00:02:37.652Z,960.98
2016-12-21T00:03:03.629Z,961
2016-12-21T00:03:29.616Z,960.96
2016-12-21T00:03:55.599Z,960.98
2016-12-21T00:04:21.582Z,961.01
2016-12-21T00:04:47.566Z,960.99
2016-12-21T00:05:13.548Z,961
2016-12-21T00:05:39.654Z,961.04
2016-12-21T00:06:05.613Z,961
2016-12-21T00:06:31.598Z,961.01
2016-12-21T00:06:57.582Z,961.01
2016-12-21T00:07:23.566Z,961.03
2016-12-21T00:07:49.551Z,961.05
2016-12-21T00:08:15.535Z,961.06
2016-12-21T00:08:41.519Z,961.07
2016-12-21T00:09:07.508Z,961.05
2016-12-21T00:09:33.491Z,961.02
2016-12-21T00:09:59.484Z,961.04
2016-12-21T00:10:25.487Z,961.05
2016-12-21T00:10:51.483Z,961.05
2016-12-21T00:11:17.495Z,961.07
2016-12-21T00:11:43.499Z,961.1
2016-12-21T00:12:09.508Z,961.06
2016-12-21T00:12:35.484Z,961.04
2016-12-21T00:13:01.473Z,961.08
2016-12-21T00:13:27.455Z,961.11
2016-12-21T00:13:53.439Z,961.1
2016-12-21T00:14:19.423Z,961.08
2016-12-21T00:14:45.407Z,961.07
2016-12-21T00:15:11.395Z,961.1
2016-12-21T00:15:37.390Z,961.11
2016-12-21T00:16:03.373Z,961.11
2016-12-21T00:16:29.356Z,961.13
2016-12-21T00:16:55.341Z,961.13
2016-12-21T00:17:21.328Z,961.09
2016-12-21T00:17:47.311Z,961.07
2016-12-21T00:18:13.297Z,961.11
2016-12-21T00:18:39.285Z,961.1
2016-12-21T00:19:05.281Z,961.1
2016-12-21T00:19:31.266Z,961.12
2016-12-21T00:19:57.251Z,961.13
2016-12-21T00:20:23.233Z,961.16
2016-12-21T00:20:49.216Z,961.13
2016-12-21T00:21:15.203Z,961.16
2016-12-21T00:21:41.181Z,961.16
2016-12-21T00:22:07.165Z,961.13
2016-12-21T00:22:33.151Z,961.15
2016-12-21T00:22:59.135Z,961.17
2016-12-21T00:23:25.128Z,961.16
2016-12-21T00:23:51.112Z,961.15
2016-12-21T00:24:17.103Z,961.19
2016-12-21T00:24:43.092Z,961.17
2016-12-21T00:25:09.078Z,961.19
2016-12-21T00:25:35.064Z,961.27
2016-12-21T00:26:01.050Z,961.22
2016-12-21T00:26:27.038Z,961.25
2016-12-21T00:26:53.017Z,961.22
2016-12-21T00:27:19.001Z,961.23
2016-12-21T00:27:44.983Z,961.25
2016-12-21T00:28:10.966Z,961.25
2016-12-21T00:28:36.951Z,961.26
2016-12-21T00:29:02.934Z,961.25
2016-12-21T00:29:28.918Z,961.22
2016-12-21T00:29:54.905Z,961.25
2016-12-21T00:30:20.901Z,961.26
2016-12-21T00:30:46.887Z,961.24
2016-12-21T00:31:12.871Z,961.25
2016-12-21T00:31:38.855Z,961.28
2016-12-21T00:32:04.842Z,961.29
2016-12-21T00:32:30.821Z,961.26
2016-12-21T00:32:56.813Z,961.27
2016-12-21T00:33:22.809Z,961.27
2016-12-21T00:33:48.804Z,961.25
2016-12-21T00:34:14.786Z,961.28
2016-12-21T00:34:40.774Z,961.26
2016-12-21T00:35:06.759Z,961.26
2016-12-21T00:35:32.741Z,961.23
2016-12-21T00:35:58.728Z,961.26
2016-12-21T00:36:24.717Z,961.27
2016-12-21T00:36:50.712Z,961.2
2016-12-21T00:37:16.694Z,961.22
2016-12-21T00:37:42.681Z,961.28
2016-12-21T00:38:08.666Z,961.24
2016-12-21T00:38:34.652Z,961.23
2016-12-21T00:39:00.638Z,961.25
2016-12-21T00:39:26.619Z,961.26
2016-12-21T00:39:52.605Z,961.26
2016-12-21T00:40:18.589Z,961.3
2016-12-21T00:40:44.572Z,961.28
2016-12-21T00:41:10.558Z,961.3
2016-12-21T00:41:36.540Z,961.29
2016-12-21T00:42:02.525Z,961.31
2016-12-21T00:42:28.520Z,961.27
2016-12-21T00:42:54.504Z,961.29
2016-12-21T00:43:20.488Z,961.3
2016-12-21T00:43:46.476Z,961.27
2016-12-21T00:44:12.465Z,961.33
2016-12-21T00:44:38.454Z,961.3
2016-12-21T00:45:04.437Z,961.31
2016-12-21T00:45:30.419Z,961.32
2016-12-21T00:45:56.404Z,961.33
2016-12-21T00:46:22.404Z,961.33
2016-12-21T00:46:48.397Z,961.35
2016-12-21T00:47:14.388Z,961.33
2016-12-21T00:47:40.373Z,961.32
2016-12-21T00:48:06.354Z,961.32
2016-12-21T00:48:32.343Z,961.33
2016-12-21T00:48:58.343Z,961.3
2016-12-21T00:49:24.333Z,961.36
2016-12-21T00:49:50.317Z,961.4
2016-12-21T00:50:16.301Z,961.4
2016-12-21T00:50:42.286Z,961.37
2016-12-21T00:51:08.270Z,961.37
2016-12-21T00:51:34.251Z,961.38
2016-12-21T00:52:00.235Z,961.41
2016-12-21T00:52:26.219Z,961.37
2016-12-21T00:52:52.203Z,961.35
2016-12-21T00:53:18.187Z,961.35
2016-12-21T00:53:44.172Z,961.38
2016-12-21T00:54:10.154Z,961.36
2016-12-21T00:54:36.143Z,961.37
2016-12-21T00:55:02.127Z,961.4
2016-12-21T00:55:28.112Z,961.4
2016-12-21T00:55:54.100Z,961.37
2016-12-21T00:56:20.082Z,961.42
2016-12-21T00:56:46.069Z,961.4
2016-12-21T00:57:12.050Z,961.39
2016-12-21T00:57:38.037Z,961.4
2016-12-21T00:58:04.022Z,961.37
2016-12-21T00:58:30.003Z,961.36
2016-12-21T00:58:55.987Z,961.38
2016-12-21T00:59:21.972Z,961.34
2016-12-21T00:59:47.961Z,961.4
2016-12-21T01:00:13.951Z,961.38
2016-12-21T01:00:39.935Z,961.38
2016-12-21T01:01:05.919Z,961.39
2016-12-21T01:01:31.903Z,961.4
2016-12-21T01:01:57.885Z,961.37
2016-12-21T01:02:23.870Z,961.41
2016-12-21T01:02:49.856Z,961.43
2016-12-21T01:03:15.844Z,961.43
2016-12-21T01:03:41.825Z,961.42
2016-12-21T01:04:07.812Z,961.39
2016-12-21T01:04:33.800Z,961.39
2016-12-21T01:04:59.787Z,961.4
2016-12-21T01:05:25.775Z,961.39
2016-12-21T01:05:51.771Z,961.4
2016-12-21T01:06:17.759Z,961.38
2016-12-21T01:06:43.744Z,961.41
2016-12-21T01:07:09.727Z,961.39
2016-12-21T01:07:35.719Z,961.36
2016-12-21T01:08:01.704Z,961.36
2016-12-21T01:08:27.682Z,961.39
2016-12-21T01:08:53.664Z,961.41
2016-12-21T01:09:19.649Z,961.4
2016-12-21T01:09:45.630Z,961.4
2016-12-21T01:10:11.611Z,961.45
2016-12-21T01:10:37.600Z,961.47
2016-12-21T01:11:03.582Z,961.47
2016-12-21T01:11:29.580Z,961.49
2016-12-21T01:11:55.569Z,961.51
2016-12-21T01:12:21.555Z,961.5
2016-12-21T01:12:47.541Z,961.52
2016-12-21T01:13:13.527Z,961.54
2016-12-21T01:13:39.509Z,961.57
2016-12-21T01:14:05.495Z,961.5
2016-12-21T01:14:31.482Z,961.56
2016-12-21T01:14:57.465Z,961.55
2016-12-21T01:15:23.451Z,961.57
2016-12-21T01:15:49.435Z,961.55
2016-12-21T01:16:15.438Z,961.56
2016-12-21T01:16:41.426Z,961.55
2016-12-21T01:17:07.408Z,961.53
2016-12-21T01:17:33.397Z,961.51
2016-12-21T01:17:59.390Z,961.52
2016-12-21T01:18:25.378Z,961.52
2016-12-21T01:18:51.380Z,961.55
2016-12-21T01:19:17.398Z,961.55
2016-12-21T01:19:43.394Z,961.55
2016-12-21T01:20:09.397Z,961.54
2016-12-21T01:20:35.395Z,961.58
2016-12-21T01:21:01.387Z,961.54
2016-12-21T01:21:27.383Z,961.61
2016-12-21T01:21:53.366Z,961.58
2016-12-21T01:22:19.351Z,961.55
2016-12-21T01:22:45.336Z,961.61
2016-12-21T01:23:11.320Z,961.6
2016-12-21T01:23:37.302Z,961.57
2016-12-21T01:24:03.285Z,961.64
2016-12-21T01:24:29.266Z,961.59
2016-12-21T01:24:55.247Z,961.62
2016-12-21T01:25:21.234Z,961.63
2016-12-21T01:25:47.219Z,961.62
2016-12-21T01:26:13.211Z,961.66
2016-12-21T01:26:39.202Z,961.66
2016-12-21T01:27:05.191Z,961.65
2016-12-21T01:27:31.173Z,961.7
2016-12-21T01:27:57.155Z,961.66
2016-12-21T01:28:23.145Z,961.67
2016-12-21T01:28:49.128Z,961.66
2016-12-21T01:29:15.113Z,961.68
2016-12-21T01:29:41.095Z,961.66
2016-12-21T01:30:07.081Z,961.68
2016-12-21T01:30:33.126Z,961.69
2016-12-21T01:30:59.111Z,961.67
2016-12-21T01:31:25.095Z,961.69
2016-12-21T01:31:51.081Z,961.7
2016-12-21T01:32:17.062Z,961.67
2016-12-21T01:32:43.050Z,961.68
2016-12-21T01:33:09.031Z,961.67
2016-12-21T01:33:35.014Z,961.66
2016-12-21T01:34:01.003Z,961.65
2016-12-21T01:34:27.004Z,961.63
2016-12-21T01:34:52.988Z,961.66
2016-12-21T01:35:18.971Z,961.68
2016-12-21T01:35:45.012Z,961.71
2016-12-21T01:36:11.005Z,961.7
2016-12-21T01:36:36.987Z,961.73
2016-12-21T01:37:02.971Z,961.67
2016-12-21T01:37:28.954Z,961.71
2016-12-21T01:37:54.938Z,961.7
2016-12-21T01:38:20.920Z,961.69
2016-12-21T01:38:46.909Z,961.72
2016-12-21T01:39:12.894Z,961.75
2016-12-21T01:39:38.879Z,961.75
2016-12-21T01:40:04.865Z,961.78
2016-12-21T01:40:30.850Z,961.72
2016-12-21T01:40:56.834Z,961.73
2016-12-21T01:41:22.818Z,961.75
2016-12-21T01:41:48.815Z,961.79
2016-12-21T01:42:14.800Z,961.76
2016-12-21T01:42:40.785Z,961.76
2016-12-21T01:43:06.769Z,961.79
2016-12-21T01:43:32.752Z,961.78
2016-12-21T01:43:58.737Z,961.75
2016-12-21T01:44:24.727Z,961.78
2016-12-21T01:44:50.730Z,961.76
2016-12-21T01:45:16.715Z,961.79
2016-12-21T01:45:42.749Z,961.72
2016-12-21T01:46:08.734Z,961.78
2016-12-21T01:46:34.717Z,961.78
2016-12-21T01:47:00.699Z,961.73
2016-12-21T01:47:26.686Z,961.73
2016-12-21T01:47:52.676Z,961.75
2016-12-21T01:48:18.655Z,961.74
2016-12-21T01:48:44.640Z,961.68
2016-12-21T01:49:10.626Z,961.72
2016-12-21T01:49:36.610Z,961.72
2016-12-21T01:50:02.596Z,961.72
2016-12-21T01:50:28.581Z,961.72
2016-12-21T01:50:54.563Z,961.73
2016-12-21T01:51:20.546Z,961.7
2016-12-21T01:51:46.530Z,961.72
2016-12-21T01:52:12.514Z,961.69
2016-12-21T01:52:38.518Z,961.71
2016-12-21T01:53:04.498Z,961.68
2016-12-21T01:53:30.478Z,961.7
2016-12-21T01:53:56.465Z,961.76
2016-12-21T01:54:22.459Z,961.67
2016-12-21T01:54:48.452Z,961.7
2016-12-21T01:55:14.573Z,961.73
2016-12-21T01:55:40.557Z,961.72
2016-12-21T01:56:06.540Z,961.71
2016-12-21T01:56:32.525Z,961.68
2016-12-21T01:56:58.506Z,961.7
2016-12-21T01:57:24.511Z,961.7
2016-12-21T01:57:50.494Z,961.69
2016-12-21T01:58:16.477Z,961.72
2016-12-21T01:58:42.460Z,961.72
2016-12-21T01:59:08.447Z,961.74
2016-12-21T01:59:34.449Z,961.72
2016-12-21T02:00:00.444Z,961.75
2016-12-21T02:00:26.427Z,961.68
2016-12-21T02:00:52.463Z,961.72
2016-12-21T02:01:18.460Z,961.76
2016-12-21T02:01:44.458Z,961.7
2016-12-21T02:02:10.447Z,961.69
2016-12-21T02:02:36.430Z,961.72
2016-12-21T02:03:02.415Z,961.71
2016-12-21T02:03:28.397Z,961.69
2016-12-21T02:03:54.381Z,961.66
2016-12-21T02:04:20.365Z,961.71
2016-12-21T02:04:46.348Z,961.67
2016-12-21T02:05:12.333Z,961.68
2016-12-21T02:05:38.319Z,961.7
2016-12-21T02:06:04.305Z,961.65
2016-12-21T02:06:30.291Z,961.7
2016-12-21T02:06:56.307Z,961.7
2016-12-21T02:07:22.289Z,961.74
2016-12-21T02:07:48.274Z,961.72
2016-12-21T02:08:14.269Z,961.72
2016-12-21T02:08:40.255Z,961.74
2016-12-21T02:09:06.242Z,961.74
2016-12-21T02:09:32.228Z,961.73
2016-12-21T02:09:58.213Z,961.7
2016-12-21T02:10:24.203Z,961.77
2016-12-21T02:10:50.189Z,961.7
2016-12-21T02:11:16.172Z,961.74
2016-12-21T02:11:42.158Z,961.74
2016-12-21T02:12:08.142Z,961.67
2016-12-21T02:12:34.126Z,961.7
2016-12-21T02:13:00.113Z,961.69
2016-12-21T02:13:26.092Z,961.71
2016-12-21T02:13:52.079Z,961.69
2016-12-21T02:14:18.065Z,961.66
2016-12-21T02:14:44.065Z,961.67
2016-12-21T02:15:10.049Z,961.63
2016-12-21T02:15:36.035Z,961.67
2016-12-21T02:16:02.017Z,961.65
2016-12-21T02:16:28.015Z,961.66
2016-12-21T02:16:54.004Z,961.68
2016-12-21T02:17:19.989Z,961.65
2016-12-21T02:17:45.971Z,961.7
2016-12-21T02:18:11.953Z,961.66
2016-12-21T02:18:37.938Z,961.69
2016-12-21T02:19:03.918Z,961.68
2016-12-21T02:19:29.903Z,961.64
2016-12-21T02:19:55.889Z,961.67
2016-12-21T02:20:21.887Z,961.64
2016-12-21T02:20:47.878Z,961.66
2016-12-21T02:21:13.874Z,961.68
2016-12-21T02:21:39.862Z,961.67
2016-12-21T02:22:05.844Z,961.65
2016-12-21T02:22:31.835Z,961.67
2016-12-21T02:22:57.817Z,961.68
2016-12-21T02:23:23.801Z,961.64
2016-12-21T02:23:49.789Z,961.63
2016-12-21T02:24:15.780Z,961.65
2016-12-21T02:24:41.763Z,961.66
2016-12-21T02:25:07.748Z,961.68
2016-12-21T02:25:33.744Z,961.67
2016-12-21T02:25:59.729Z,961.65
2016-12-21T02:26:25.715Z,961.65
2016-12-21T02:26:51.696Z,961.64
2016-12-21T02:27:17.686Z,961.64
2016-12-21T02:27:43.674Z,961.66
2016-12-21T02:28:09.685Z,961.63
2016-12-21T02:28:35.680Z,961.65
2016-12-21T02:29:01.696Z,961.63
2016-12-21T02:29:27.673Z,961.61
2016-12-21T02:29:53.658Z,961.64
2016-12-21T02:30:19.640Z,961.7
2016-12-21T02:30:45.628Z,961.64
2016-12-21T02:31:11.614Z,961.65
2016-12-21T02:31:37.600Z,961.69
2016-12-21T02:32:03.593Z,961.68
2016-12-21T02:32:29.580Z,961.67
2016-12-21T02:32:55.564Z,961.68
2016-12-21T02:33:21.549Z,961.7
2016-12-21T02:33:47.536Z,961.72
2016-12-21T02:34:13.518Z,961.73
2016-12-21T02:34:39.511Z,961.72
2016-12-21T02:35:05.499Z,961.72
2016-12-21T02:35:31.483Z,961.75
2016-12-21T02:35:57.465Z,961.73
2016-12-21T02:36:23.447Z,961.72
2016-12-21T02:36:49.586Z,961.71
2016-12-21T02:37:15.568Z,961.75
2016-12-21T02:37:41.552Z,961.77
2016-12-21T02:38:07.544Z,961.75
2016-12-21T02:38:33.528Z,961.76
2016-12-21T02:38:59.519Z,961.78
2016-12-21T02:39:25.506Z,961.79
2016-12-21T02:39:51.486Z,961.79
2016-12-21T02:40:17.471Z,961.79
2016-12-21T02:40:43.455Z,961.76
2016-12-21T02:41:09.441Z,961.8
2016-12-21T02:41:35.428Z,961.75
2016-12-21T02:42:01.416Z,961.76
2016-12-21T02:42:27.398Z,961.8
2016-12-21T02:42:53.382Z,961.78
2016-12-21T02:43:19.368Z,961.75
2016-12-21T02:43:45.352Z,961.8
2016-12-21T02:44:11.335Z,961.79
2016-12-21T02:44:37.327Z,961.76
2016-12-21T02:45:03.312Z,961.8
2016-12-21T02:45:29.297Z,961.78
2016-12-21T02:45:55.284Z,961.78
2016-12-21T02:46:21.270Z,961.79
2016-12-21T02:46:47.250Z,961.77
2016-12-21T02:47:13.237Z,961.78
2016-12-21T02:47:39.219Z,961.77
2016-12-21T02:48:05.202Z,961.77
2016-12-21T02:48:31.192Z,961.8
2016-12-21T02:48:57.173Z,961.79
2016-12-21T02:49:23.158Z,961.8
2016-12-21T02:49:49.144Z,961.8
2016-12-21T02:50:15.136Z,961.86
2016-12-21T02:50:41.121Z,961.79
2016-12-21T02:51:07.109Z,961.78
2016-12-21T02:51:33.094Z,961.82
2016-12-21T02:51:59.080Z,961.83
2016-12-21T02:52:25.066Z,961.8
2016-12-21T02:52:51.047Z,961.82
2016-12-21T02:53:17.035Z,961.78
2016-12-21T02:53:43.015Z,961.81
2016-12-21T02:54:08.997Z,961.82
2016-12-21T02:54:34.978Z,961.82
2016-12-21T02:55:00.963Z,961.82
2016-12-21T02:55:26.945Z,961.82
2016-12-21T02:55:52.929Z,961.83
2016-12-21T02:56:18.923Z,961.85
2016-12-21T02:56:44.901Z,961.84
2016-12-21T02:57:10.882Z,961.86
2016-12-21T02:57:36.867Z,961.87
2016-12-21T02:58:02.851Z,961.89
2016-12-21T02:58:28.833Z,961.89
2016-12-21T02:58:54.820Z,961.91
2016-12-21T02:59:20.803Z,961.91
2016-12-21T02:59:46.806Z,961.96
2016-12-21T03:00:12.789Z,961.92
2016-12-21T03:00:38.775Z,961.95
2016-12-21T03:01:04.756Z,961.97
2016-12-21T03:01:30.751Z,961.97
2016-12-21T03:01:56.764Z,961.91
2016-12-21T03:02:22.745Z,961.94
2016-12-21T03:02:48.737Z,961.97
2016-12-21T03:03:14.735Z,961.95
2016-12-21T03:03:40.722Z,961.96
2016-12-21T03:04:06.708Z,961.94
2016-12-21T03:04:32.692Z,961.95
2016-12-21T03:04:58.675Z,961.92
2016-12-21T03:05:24.662Z,961.91
2016-12-21T03:05:50.644Z,961.95
2016-12-21T03:06:16.629Z,961.93
2016-12-21T03:06:42.612Z,961.88
2016-12-21T03:07:08.598Z,961.93
2016-12-21T03:07:34.580Z,961.91
2016-12-21T03:08:00.564Z,961.94
2016-12-21T03:08:26.562Z,961.94
2016-12-21T03:08:52.550Z,961.93
2016-12-21T03:09:18.548Z,961.98
2016-12-21T03:09:44.536Z,961.89
2016-12-21T03:10:10.517Z,961.95
2016-12-21T03:10:36.501Z,961.94
2016-12-21T03:11:02.482Z,961.89
2016-12-21T03:11:28.468Z,961.9
2016-12-21T03:11:54.449Z,961.89
2016-12-21T03:12:20.435Z,961.88
2016-12-21T03:12:46.418Z,961.88
2016-12-21T03:13:12.404Z,961.85
2016-12-21T03:13:38.386Z,961.87
2016-12-21T03:14:04.370Z,961.87
2016-12-21T03:14:30.357Z,961.88
2016-12-21T03:14:56.343Z,961.89
2016-12-21T03:15:22.332Z,961.87
2016-12-21T03:15:48.313Z,961.83
2016-12-21T03:16:14.293Z,961.85
2016-12-21T03:16:40.279Z,961.85
2016-12-21T03:17:06.264Z,961.85
2016-12-21T03:17:32.251Z,961.87
2016-12-21T03:17:58.232Z,961.86
2016-12-21T03:18:24.216Z,961.87
2016-12-21T03:18:50.199Z,961.87
2016-12-21T03:19:16.185Z,961.89
2016-12-21T03:19:42.170Z,961.93
2016-12-21T03:20:08.165Z,961.96
2016-12-21T03:20:34.141Z,961.94
2016-12-21T03:21:00.123Z,961.92
2016-12-21T03:21:26.105Z,961.97
2016-12-21T03:21:52.089Z,961.95
2016-12-21T03:22:18.074Z,961.99
2016-12-21T03:22:44.057Z,961.98
2016-12-21T03:23:10.040Z,962
2016-12-21T03:23:36.026Z,961.99
2016-12-21T03:24:02.008Z,962.02
2016-12-21T03:24:27.993Z,962
2016-12-21T03:24:53.984Z,962.02
2016-12-21T03:25:19.977Z,962.01
2016-12-21T03:25:45.975Z,962.04
2016-12-21T03:26:11.960Z,962.02
2016-12-21T03:26:37.944Z,962.07
2016-12-21T03:27:03.928Z,962.07
2016-12-21T03:27:29.911Z,962.08
2016-12-21T03:27:55.919Z,962.03
2016-12-21T03:28:21.929Z,962.06
2016-12-21T03:28:47.912Z,962.05
2016-12-21T03:29:13.895Z,962.07
2016-12-21T03:29:39.878Z,962.04
2016-12-21T03:30:05.898Z,962.06
2016-12-21T03:30:31.885Z,962.08
2016-12-21T03:30:57.870Z,962.02
2016-12-21T03:31:23.854Z,962.07
2016-12-21T03:31:49.837Z,962.04
2016-12-21T03:32:15.821Z,962.01
2016-12-21T03:32:41.802Z,962.03
2016-12-21T03:33:07.796Z,962.08
2016-12-21T03:33:33.787Z,962.05
2016-12-21T03:33:59.772Z,962.05
2016-12-21T03:34:25.755Z,962.06
2016-12-21T03:34:51.741Z,962.08
2016-12-21T03:35:17.742Z,962.07
2016-12-21T03:35:43.732Z,962.04
2016-12-21T03:36:09.714Z,962.06
2016-12-21T03:36:35.699Z,962.03
2016-12-21T03:37:01.693Z,962.03
2016-12-21T03:37:27.697Z,962.03
2016-12-21T03:37:53.679Z,962.02
2016-12-21T03:38:19.665Z,962.01
2016-12-21T03:38:45.648Z,961.99
2016-12-21T03:39:11.630Z,962.01
2016-12-21T03:39:37.616Z,962.01
2016-12-21T03:40:03.609Z,962.01
2016-12-21T03:40:29.630Z,962.01
2016-12-21T03:40:55.612Z,961.98
2016-12-21T03:41:21.656Z,962
2016-12-21T03:41:47.641Z,961.98
2016-12-21T03:42:13.618Z,962.04
2016-12-21T03:42:39.603Z,962
2016-12-21T03:43:05.598Z,962.02
2016-12-21T03:43:31.577Z,962.04
2016-12-21T03:43:57.560Z,962.07
2016-12-21T03:44:23.540Z,962.07
2016-12-21T03:44:49.522Z,962.11
2016-12-21T03:45:15.507Z,962.08
2016-12-21T03:45:41.505Z,962.07
2016-12-21T03:46:07.474Z,962.08
2016-12-21T03:46:33.462Z,962.14
2016-12-21T03:46:59.445Z,962.14
2016-12-21T03:47:25.429Z,962.12
2016-12-21T03:47:51.448Z,962.18
2016-12-21T03:48:17.432Z,962.15
2016-12-21T03:48:43.426Z,962.17
2016-12-21T03:49:09.412Z,962.17
2016-12-21T03:49:35.394Z,962.2
2016-12-21T03:50:01.379Z,962.22
2016-12-21T03:50:27.364Z,962.24
2016-12-21T03:50:53.349Z,962.2
2016-12-21T03:51:19.333Z,962.25
2016-12-21T03:51:45.316Z,962.25
2016-12-21T03:52:11.297Z,962.23
2016-12-21T03:52:37.290Z,962.25
2016-12-21T03:53:03.273Z,962.23
2016-12-21T03:53:29.257Z,962.28
2016-12-21T03:53:55.240Z,962.23
2016-12-21T03:54:21.230Z,962.22
2016-12-21T03:54:47.218Z,962.27
2016-12-21T03:55:13.213Z,962.26
2016-12-21T03:55:39.195Z,962.24
2016-12-21T03:56:05.178Z,962.22
2016-12-21T03:56:31.162Z,962.21
2016-12-21T03:56:57.149Z,962.25
2016-12-21T03:57:23.140Z,962.2
2016-12-21T03:57:49.123Z,962.2
2016-12-21T03:58:15.107Z,962.19
2016-12-21T03:58:41.091Z,962.21
2016-12-21T03:59:07.071Z,962.16
2016-12-21T03:59:33.055Z,962.21
2016-12-21T03:59:59.040Z,962.2
2016-12-21T04:00:25.027Z,962.21
2016-12-21T04:00:51.010Z,962.21
2016-12-21T04:01:16.992Z,962.15
2016-12-21T04:01:42.977Z,962.17
2016-12-21T04:02:08.960Z,962.19
2016-12-21T04:02:34.947Z,962.2
2016-12-21T04:03:00.926Z,962.19
2016-12-21T04:03:26.915Z,962.2
2016-12-21T04:03:52.900Z,962.24
2016-12-21T04:04:18.916Z,962.24
2016-12-21T04:04:44.903Z,962.23
2016-12-21T04:05:10.887Z,962.28
2016-12-21T04:05:36.870Z,962.29
2016-12-21T04:06:02.854Z,962.28
2016-12-21T04:06:28.848Z,962.31
2016-12-21T04:06:54.849Z,962.31
2016-12-21T04:07:20.836Z,962.32
2016-12-21T04:07:46.819Z,962.31
2016-12-21T04:08:12.807Z,962.33
2016-12-21T04:08:38.788Z,962.32
2016-12-21T04:09:04.773Z,962.3
2016-12-21T04:09:30.756Z,962.3
2016-12-21T04:09:56.748Z,962.29
2016-12-21T04:10:22.737Z,962.29
2016-12-21T04:10:48.734Z,962.32
2016-12-21T04:11:14.709Z,962.29
2016-12-21T04:11:40.700Z,962.3
2016-12-21T04:12:06.674Z,962.24
2016-12-21T04:12:32.661Z,962.3
2016-12-21T04:12:58.659Z,962.26
2016-12-21T04:13:24.653Z,962.28
2016-12-21T04:13:50.648Z,962.27
2016-12-21T04:14:16.633Z,962.29
2016-12-21T04:14:42.619Z,962.27
2016-12-21T04:15:08.616Z,962.27
2016-12-21T04:15:34.608Z,962.28
2016-12-21T04:16:00.590Z,962.28
2016-12-21T04:16:26.576Z,962.3
2016-12-21T04:16:52.558Z,962.28
2016-12-21T04:17:18.548Z,962.25
2016-12-21T04:17:44.529Z,962.27
2016-12-21T04:18:10.514Z,962.3
2016-12-21T04:18:36.495Z,962.29
2016-12-21T04:19:02.477Z,962.3
2016-12-21T04:19:28.470Z,962.29
2016-12-21T04:19:54.460Z,962.29
2016-12-21T04:20:20.463Z,962.35
2016-12-21T04:20:46.460Z,962.32
2016-12-21T04:21:12.443Z,962.32
2016-12-21T04:21:38.427Z,962.32
2016-12-21T04:22:04.416Z,962.34
2016-12-21T04:22:30.405Z,962.32
2016-12-21T04:22:56.388Z,962.33
2016-12-21T04:23:22.378Z,962.32
2016-12-21T04:23:48.359Z,962.34
2016-12-21T04:24:14.343Z,962.36
2016-12-21T04:24:40.326Z,962.35
2016-12-21T04:25:06.311Z,962.38
2016-12-21T04:25:32.306Z,962.38
2016-12-21T04:25:58.289Z,962.38
2016-12-21T04:26:24.282Z,962.36
2016-12-21T04:26:50.271Z,962.35
2016-12-21T04:27:16.255Z,962.35
2016-12-21T04:27:42.239Z,962.33
2016-12-21T04:28:08.221Z,962.36
2016-12-21T04:28:34.203Z,962.39
2016-12-21T04:29:00.190Z,962.35
2016-12-21T04:29:26.173Z,962.33
2016-12-21T04:29:52.162Z,962.36
2016-12-21T04:30:18.144Z,962.35
2016-12-21T04:30:44.128Z,962.36
2016-12-21T04:31:10.111Z,962.35
2016-12-21T04:31:36.092Z,962.38
2016-12-21T04:32:02.092Z,962.34
2016-12-21T04:32:28.081Z,962.33
2016-12-21T04:32:54.062Z,962.34
2016-12-21T04:33:20.044Z,962.33
2016-12-21T04:33:46.031Z,962.32
2016-12-21T04:34:12.017Z,962.32
2016-12-21T04:34:37.999Z,962.32
2016-12-21T04:35:03.983Z,962.33
2016-12-21T04:35:29.970Z,962.33
2016-12-21T04:35:55.953Z,962.31
2016-12-21T04:36:21.939Z,962.31
2016-12-21T04:36:47.923Z,962.32
2016-12-21T04:37:13.907Z,962.32
2016-12-21T04:37:39.902Z,962.34
2016-12-21T04:38:05.890Z,962.35
2016-12-21T04:38:31.890Z,962.38
2016-12-21T04:38:57.889Z,962.35
2016-12-21T04:39:23.874Z,962.37
2016-12-21T04:39:49.858Z,962.36
2016-12-21T04:40:15.841Z,962.39
2016-12-21T04:40:41.834Z,962.39
2016-12-21T04:41:07.819Z,962.38
2016-12-21T04:41:33.803Z,962.4
2016-12-21T04:41:59.787Z,962.42
2016-12-21T04:42:25.784Z,962.38
2016-12-21T04:42:51.772Z,962.46
2016-12-21T04:43:17.751Z,962.41
2016-12-21T04:43:43.747Z,962.41
2016-12-21T04:44:09.730Z,962.42
2016-12-21T04:44:35.723Z,962.42
2016-12-21T04:45:01.738Z,962.42
2016-12-21T04:45:27.723Z,962.43
2016-12-21T04:45:53.716Z,962.42
2016-12-21T04:46:19.706Z,962.43
2016-12-21T04:46:45.702Z,962.46
2016-12-21T04:47:11.692Z,962.48
2016-12-21T04:47:37.667Z,962.47
2016-12-21T04:48:03.652Z,962.46
2016-12-21T04:48:29.637Z,962.46
2016-12-21T04:48:55.619Z,962.48
2016-12-21T04:49:21.633Z,962.55
2016-12-21T04:49:47.614Z,962.5
2016-12-21T04:50:13.599Z,962.49
2016-12-21T04:50:39.583Z,962.49
2016-12-21T04:51:05.568Z,962.5
2016-12-21T04:51:31.555Z,962.51
2016-12-21T04:51:57.540Z,962.49
2016-12-21T04:52:23.525Z,962.49
2016-12-21T04:52:49.519Z,962.51
2016-12-21T04:53:15.512Z,962.49
2016-12-21T04:53:41.496Z,962.47
2016-12-21T04:54:07.480Z,962.49
2016-12-21T04:54:33.460Z,962.5
2016-12-21T04:54:59.479Z,962.49
2016-12-21T04:55:25.466Z,962.5
2016-12-21T04:55:51.451Z,962.5
2016-12-21T04:56:17.433Z,962.54
2016-12-21T04:56:43.415Z,962.53
2016-12-21T04:57:09.403Z,962.52
2016-12-21T04:57:35.385Z,962.55
2016-12-21T04:58:01.375Z,962.56
2016-12-21T04:58:27.358Z,962.53
2016-12-21T04:58:53.343Z,962.52
2016-12-21T04:59:19.333Z,962.5
2016-12-21T04:59:45.327Z,962.57
2016-12-21T05:00:11.319Z,962.55
2016-12-21T05:00:37.299Z,962.58
2016-12-21T05:01:03.285Z,962.57
2016-12-21T05:01:29.279Z,962.59
2016-12-21T05:01:55.264Z,962.61
2016-12-21T05:02:21.246Z,962.64
2016-12-21T05:02:47.230Z,962.64
2016-12-21T05:03:13.211Z,962.67
2016-12-21T05:03:39.195Z,962.64
2016-12-21T05:04:05.182Z,962.68
2016-12-21T05:04:31.163Z,962.68
2016-12-21T05:04:57.155Z,962.68
2016-12-21T05:05:23.133Z,962.71
2016-12-21T05:05:49.114Z,962.7
2016-12-21T05:06:15.105Z,962.67
2016-12-21T05:06:41.088Z,962.68
2016-12-21T05:07:07.071Z,962.7
2016-12-21T05:07:33.056Z,962.69
2016-12-21T05:07:59.048Z,962.7
2016-12-21T05:08:25.031Z,962.68
2016-12-21T05:08:51.017Z,962.7
2016-12-21T05:09:16.998Z,962.71
2016-12-21T05:09:42.995Z,962.72
2016-12-21T05:10:08.986Z,962.67
2016-12-21T05:10:34.963Z,962.65
2016-12-21T05:11:00.960Z,962.72
2016-12-21T05:11:26.969Z,962.67
2016-12-21T05:11:52.960Z,962.66
2016-12-21T05:12:18.958Z,962.68
2016-12-21T05:12:44.956Z,962.66
2016-12-21T05:13:10.945Z,962.64
2016-12-21T05:13:36.932Z,962.64
2016-12-21T05:14:02.912Z,962.7
2016-12-21T05:14:28.896Z,962.67
2016-12-21T05:14:54.881Z,962.67
2016-12-21T05:15:20.863Z,962.69
2016-12-21T05:15:46.847Z,962.71
2016-12-21T05:16:12.832Z,962.71
2016-12-21T05:16:38.816Z,962.7
2016-12-21T05:17:04.799Z,962.71
2016-12-21T05:17:30.781Z,962.7
2016-12-21T05:17:56.766Z,962.7
2016-12-21T05:18:22.765Z,962.73
2016-12-21T05:18:48.755Z,962.72
2016-12-21T05:19:14.736Z,962.74
2016-12-21T05:19:40.720Z,962.71
2016-12-21T05:20:06.705Z,962.73
2016-12-21T05:20:32.705Z,962.76
2016-12-21T05:20:58.702Z,962.79
2016-12-21T05:21:24.674Z,962.79
2016-12-21T05:21:50.655Z,962.83
2016-12-21T05:22:16.638Z,962.85
2016-12-21T05:22:42.622Z,962.85
2016-12-21T05:23:08.607Z,962.86
2016-12-21T05:23:34.606Z,962.94
2016-12-21T05:24:00.581Z,962.94
2016-12-21T05:24:26.574Z,962.96
2016-12-21T05:24:52.562Z,962.98
2016-12-21T05:25:18.545Z,962.98